Time;durP1;ratioP1;P1;durP2;ratioP2;P2;SDS_P1;SDS_P2;PMS_P1;PMS_P2;Temp;Humidity;BMP_temperature;BMP_pressure;BME280_temperature;BME280_humidity;BME280_pressure;Samples;Min_cycle;Max_cycle;Signal;HPM_P1;HPM_P2
2022/08/09 00:00:08;;;;;;;1.60;1.50;;;17.40;89.20;;;;;;5074134;28;20214;-79
2022/08/09 00:02:34;;;;;;;3.07;1.87;;;17.40;89.20;;;;;;5086097;28;20178;-79
2022/08/09 00:05:00;;;;;;;1.87;1.80;;;17.30;89.30;;;;;;5076043;28;20781;-78
2022/08/09 00:07:26;;;;;;;2.27;2.07;;;17.30;89.50;;;;;;5086535;28;20174;-78
2022/08/09 00:09:52;;;;;;;2.47;1.40;;;17.30;89.60;;;;;;5080229;28;20438;-79
2022/08/09 00:12:17;;;;;;;1.73;1.67;;;17.20;89.70;;;;;;5094036;28;20280;-78
2022/08/09 00:14:43;;;;;;;1.37;1.30;;;17.20;89.90;;;;;;5083617;28;20188;-79
2022/08/09 00:17:08;;;;;;;1.60;1.57;;;17.20;90.00;;;;;;5105677;28;20612;-79
2022/08/09 00:19:34;;;;;;;2.33;2.17;;;17.10;89.90;;;;;;5092318;28;20217;-79
2022/08/09 00:22:01;;;;;;;4.10;1.77;;;17.10;90.20;;;;;;5098438;28;20178;-79
2022/08/09 00:24:28;;;;;;;4.73;2.80;;;17.00;90.30;;;;;;5116648;28;20423;-78
2022/08/09 00:26:54;;;;;;;1.97;1.87;;;17.00;90.30;;;;;;5100289;28;20430;-81
2022/08/09 00:29:20;;;;;;;3.13;2.50;;;17.00;90.60;;;;;;5096609;28;20466;-80
2022/08/09 00:31:45;;;;;;;1.70;1.60;;;17.00;90.60;;;;;;5092902;28;20415;-81
2022/08/09 00:34:11;;;;;;;3.00;2.27;;;17.00;90.30;;;;;;5084764;28;20425;-81
2022/08/09 00:36:37;;;;;;;2.03;1.93;;;16.90;90.50;;;;;;5090155;28;20182;-81
2022/08/09 00:39:02;;;;;;;6.23;2.93;;;16.90;90.60;;;;;;5104193;27;20748;-81
2022/08/09 00:41:28;;;;;;;5.43;2.03;;;16.90;90.90;;;;;;5111965;27;20183;-81
2022/08/09 00:43:53;;;;;;;2.33;2.13;;;16.90;90.90;;;;;;5108358;28;20227;-81
2022/08/09 00:46:19;;;;;;;1.77;1.70;;;16.90;91.10;;;;;;5112183;27;20177;-81
2022/08/09 00:48:45;;;;;;;2.40;2.23;;;16.80;91.10;;;;;;5102008;27;20194;-81
2022/08/09 00:51:13;;;;;;;2.70;1.87;;;16.80;91.40;;;;;;5092617;28;20635;-80
2022/08/09 00:53:39;;;;;;;2.20;2.00;;;16.80;91.30;;;;;;5096836;28;20499;-79
2022/08/09 00:56:06;;;;;;;2.80;2.60;;;16.80;91.20;;;;;;5092231;28;20447;-81
2022/08/09 00:58:34;;;;;;;3.33;1.50;;;16.70;91.30;;;;;;5099227;28;20225;-83
2022/08/09 01:01:05;;;;;;;5.70;2.27;;;16.70;91.50;;;;;;5108825;28;20427;-83
2022/08/09 01:03:43;;;;;;;1.60;1.50;;;16.60;91.50;;;;;;5108559;28;20396;-82
2022/08/09 01:06:20;;;;;;;4.27;2.67;;;16.60;91.60;;;;;;5104974;28;20420;-82
2022/08/09 01:09:25;;;;;;;2.73;2.50;;;16.60;91.70;;;;;;5105964;28;20459;-82
2022/08/09 01:12:01;;;;;;;2.13;1.60;;;16.60;92.00;;;;;;5110549;27;21069;-82
2022/08/09 01:14:42;;;;;;;2.80;2.13;;;16.50;92.40;;;;;;5108151;28;20537;-82
2022/08/09 01:17:22;;;;;;;3.30;1.97;;;16.50;92.30;;;;;;5108098;28;20829;-82
2022/08/09 01:20:07;;;;;;;2.20;2.00;;;16.50;92.60;;;;;;5106734;28;20486;-82
2022/08/09 01:22:58;;;;;;;2.30;2.03;;;16.40;92.50;;;;;;5102463;28;20436;-83
2022/08/09 01:25:40;;;;;;;1.70;1.60;;;16.30;92.50;;;;;;5087191;28;20470;-82
2022/08/09 01:28:08;;;;;;;2.60;2.13;;;16.30;92.80;;;;;;5108392;28;20407;-82
2022/08/09 01:30:36;;;;;;;2.23;1.60;;;16.20;92.90;;;;;;5089109;28;20412;-83
2022/08/09 01:33:06;;;;;;;1.67;1.67;;;16.20;93.00;;;;;;5099735;28;20420;-82
2022/08/09 01:35:41;;;;;;;2.30;2.00;;;16.20;93.00;;;;;;5095130;28;20411;-82
2022/08/09 01:38:12;;;;;;;2.60;2.13;;;16.10;93.40;;;;;;5094155;28;20783;-82
2022/08/09 01:40:47;;;;;;;1.87;1.73;;;16.10;93.50;;;;;;5095397;28;20471;-83
2022/08/09 01:43:14;;;;;;;2.73;2.30;;;16.00;93.60;;;;;;5107732;28;20931;-82
2022/08/09 01:45:42;;;;;;;1.50;1.40;;;16.00;93.70;;;;;;5115135;27;20442;-82
2022/08/09 01:48:08;;;;;;;3.87;1.80;;;16.00;94.10;;;;;;5111884;28;20445;-83
2022/08/09 01:50:34;;;;;;;1.90;1.80;;;16.00;94.10;;;;;;5108268;28;20423;-82
2022/08/09 01:53:01;;;;;;;1.70;1.60;;;15.90;94.20;;;;;;5108775;28;20932;-83
2022/08/09 01:55:30;;;;;;;2.90;1.90;;;15.90;94.10;;;;;;5117152;28;20416;-83
2022/08/09 01:57:58;;;;;;;3.63;2.20;;;15.90;94.20;;;;;;5089444;28;20461;-83
2022/08/09 02:00:26;;;;;;;1.43;1.33;;;15.80;94.20;;;;;;5108175;28;20478;-83
2022/08/09 02:02:52;;;;;;;4.27;1.50;;;15.80;94.30;;;;;;5108199;28;20419;-82
2022/08/09 02:05:21;;;;;;;3.17;2.23;;;15.70;94.40;;;;;;5080898;28;20421;-83
2022/08/09 02:08:01;;;;;;;2.47;2.33;;;15.70;94.40;;;;;;5101617;28;20820;-82
2022/08/09 02:10:31;;;;;;;1.93;1.90;;;15.70;94.70;;;;;;5100949;28;20525;-83
2022/08/09 02:13:02;;;;;;;2.03;1.80;;;15.60;94.80;;;;;;5090455;28;20485;-83
2022/08/09 02:15:31;;;;;;;3.07;1.87;;;15.60;94.90;;;;;;5118948;28;20487;-83
2022/08/09 02:17:59;;;;;;;12.30;3.47;;;15.50;95.10;;;;;;5087714;28;20420;-83
2022/08/09 02:20:27;;;;;;;2.60;1.67;;;15.50;95.20;;;;;;5088002;28;20617;-83
2022/08/09 02:23:06;;;;;;;1.70;1.67;;;15.40;95.60;;;;;;5096198;28;20419;-82
2022/08/09 02:25:36;;;;;;;1.60;1.50;;;15.40;95.60;;;;;;5107903;28;20412;-82
2022/08/09 02:28:25;;;;;;;2.97;1.93;;;15.30;95.60;;;;;;5096247;28;20421;-83
2022/08/09 02:30:57;;;;;;;2.07;1.93;;;15.20;95.90;;;;;;5087588;28;20421;-82
2022/08/09 02:33:25;;;;;;;3.20;2.93;;;15.20;95.80;;;;;;5116557;28;20438;-80
2022/08/09 02:35:54;;;;;;;6.97;2.47;;;15.20;95.90;;;;;;5101409;28;20412;-80
2022/08/09 02:38:26;;;;;;;1.90;1.80;;;15.20;95.90;;;;;;5087361;28;20437;-80
2022/08/09 02:40:54;;;;;;;2.60;2.33;;;15.20;96.00;;;;;;5100570;28;20457;-80
2022/08/09 02:43:23;;;;;;;1.93;1.83;;;15.20;96.10;;;;;;5101882;28;20405;-80
2022/08/09 02:45:50;;;;;;;2.53;2.33;;;15.10;96.20;;;;;;5081423;28;20419;-80
2022/08/09 02:48:18;;;;;;;2.73;2.53;;;15.10;96.40;;;;;;5098662;28;20427;-80
2022/08/09 02:50:49;;;;;;;3.20;2.27;;;15.10;96.50;;;;;;5101596;28;20430;-80
2022/08/09 02:53:26;;;;;;;2.03;1.67;;;15.00;96.50;;;;;;5091770;28;20657;-80
2022/08/09 02:55:56;;;;;;;1.97;1.87;;;15.00;96.40;;;;;;5094601;28;20431;-80
2022/08/09 02:58:25;;;;;;;2.40;1.97;;;15.00;96.60;;;;;;5112898;28;20495;-80
2022/08/09 03:00:53;;;;;;;2.23;2.03;;;14.90;96.60;;;;;;5093919;28;20641;-80
2022/08/09 03:03:20;;;;;;;1.83;1.77;;;14.90;96.60;;;;;;5082376;28;20440;-80
2022/08/09 03:05:49;;;;;;;2.27;2.07;;;14.80;96.70;;;;;;5080518;28;20448;-80
2022/08/09 03:08:15;;;;;;;2.43;1.30;;;14.80;97.20;;;;;;5081806;28;20500;-80
2022/08/09 03:10:43;;;;;;;3.00;1.90;;;14.70;97.20;;;;;;5081510;28;20416;-80
2022/08/09 03:13:09;;;;;;;2.90;2.70;;;14.70;97.10;;;;;;5082060;28;20527;-80
2022/08/09 03:15:36;;;;;;;2.37;2.17;;;14.70;97.20;;;;;;5080326;28;20428;-80
2022/08/09 03:18:03;;;;;;;2.70;2.03;;;14.60;97.30;;;;;;5089003;28;20447;-80
2022/08/09 03:20:29;;;;;;;4.00;2.23;;;14.60;97.30;;;;;;5084743;28;20452;-80
2022/08/09 03:22:56;;;;;;;2.00;1.90;;;14.60;97.30;;;;;;5080719;28;20443;-80
2022/08/09 03:25:21;;;;;;;7.57;3.63;;;14.50;97.30;;;;;;5082791;28;20181;-80
2022/08/09 03:27:51;;;;;;;2.50;2.30;;;14.50;97.30;;;;;;5101704;28;20408;-80
2022/08/09 03:30:17;;;;;;;2.30;1.73;;;14.50;97.30;;;;;;5097456;28;20595;-80
2022/08/09 03:32:43;;;;;;;4.10;3.03;;;14.40;97.30;;;;;;5080053;28;20408;-80
2022/08/09 03:35:12;;;;;;;2.40;2.20;;;14.40;97.30;;;;;;5097252;28;20943;-80
2022/08/09 03:37:39;;;;;;;2.57;2.10;;;14.40;97.30;;;;;;5099039;28;20182;-80
2022/08/09 03:40:05;;;;;;;2.47;1.70;;;14.40;97.30;;;;;;5087666;28;20899;-80
2022/08/09 03:42:31;;;;;;;4.33;2.57;;;14.40;97.30;;;;;;5103973;28;20411;-80
2022/08/09 03:44:57;;;;;;;1.43;1.33;;;14.40;97.30;;;;;;5098064;28;20423;-80
2022/08/09 03:47:22;;;;;;;2.13;1.97;;;14.40;97.30;;;;;;5084265;28;20174;-80
2022/08/09 03:49:49;;;;;;;2.20;2.00;;;14.40;97.30;;;;;;5096955;28;20221;-81
2022/08/09 03:52:17;;;;;;;2.60;2.40;;;14.30;97.30;;;;;;5094231;28;20196;-80
2022/08/09 03:54:45;;;;;;;2.73;2.30;;;14.30;97.30;;;;;;5087554;28;20467;-81
2022/08/09 03:57:11;;;;;;;2.93;2.73;;;14.20;97.30;;;;;;5104362;28;20407;-80
2022/08/09 04:02:12;;;;;;;4.77;2.80;;;14.10;97.30;;;;;;5108631;22;20475;-82
2022/08/09 04:04:38;;;;;;;3.17;2.97;;;14.00;97.30;;;;;;5097711;28;20408;-82
2022/08/09 04:07:04;;;;;;;2.33;2.13;;;14.00;97.30;;;;;;5095555;28;20178;-82
2022/08/09 04:09:30;;;;;;;3.77;2.23;;;14.00;97.30;;;;;;5102492;28;20437;-82
2022/08/09 04:12:17;;;;;;;2.43;2.27;;;14.10;97.30;;;;;;5074960;28;20792;-82
2022/08/09 04:14:43;;;;;;;4.37;2.87;;;14.10;97.30;;;;;;5074946;28;20955;-82
2022/08/09 04:17:08;;;;;;;1.73;1.63;;;14.10;97.30;;;;;;5093646;28;20427;-82
2022/08/09 04:19:34;;;;;;;2.07;1.93;;;14.10;97.30;;;;;;5090442;28;20203;-82
2022/08/09 04:22:00;;;;;;;3.43;2.50;;;14.10;97.30;;;;;;5069909;28;20775;-82
2022/08/09 04:24:26;;;;;;;1.70;1.60;;;14.20;97.30;;;;;;5078572;28;20257;-82
2022/08/09 04:26:52;;;;;;;1.87;1.60;;;14.10;97.30;;;;;;5077931;28;20470;-82
2022/08/09 04:29:18;;;;;;;3.10;2.57;;;14.10;97.30;;;;;;5086608;28;20209;-83
2022/08/09 04:31:44;;;;;;;14.80;2.03;;;14.20;97.30;;;;;;5091170;28;20421;-82
2022/08/09 04:34:09;;;;;;;3.60;2.40;;;14.20;97.30;;;;;;5073400;28;20571;-82
2022/08/09 04:36:35;;;;;;;3.30;2.17;;;14.20;97.30;;;;;;5072884;28;20179;-83
2022/08/09 04:39:04;;;;;;;4.37;2.73;;;14.20;97.30;;;;;;5069102;28;20198;-83
2022/08/09 04:41:30;;;;;;;2.13;1.97;;;14.20;97.30;;;;;;5082456;28;20216;-82
2022/08/09 04:43:56;;;;;;;2.30;2.10;;;14.10;97.30;;;;;;5080436;28;20837;-83
2022/08/09 04:46:22;;;;;;;5.20;1.73;;;14.20;97.30;;;;;;5100404;28;20419;-83
2022/08/09 04:48:48;;;;;;;2.67;1.90;;;14.20;97.30;;;;;;5080381;28;20497;-83
2022/08/09 04:51:13;;;;;;;3.10;2.10;;;14.20;97.30;;;;;;5095182;28;20201;-82
2022/08/09 04:53:39;;;;;;;3.13;2.93;;;14.20;97.30;;;;;;5068195;28;20209;-83
2022/08/09 04:56:05;;;;;;;2.47;2.27;;;14.20;97.30;;;;;;5087100;28;20688;-82
2022/08/09 04:58:32;;;;;;;2.07;1.67;;;14.30;97.30;;;;;;5105831;28;20297;-82
2022/08/09 05:00:58;;;;;;;13.30;3.10;;;14.30;97.30;;;;;;5093673;28;20479;-83
2022/08/09 05:03:24;;;;;;;4.47;2.90;;;14.40;97.30;;;;;;5079174;28;20417;-83
2022/08/09 05:05:50;;;;;;;2.80;2.60;;;14.40;97.30;;;;;;5093911;28;20768;-83
2022/08/09 05:08:16;;;;;;;6.40;2.70;;;14.40;97.30;;;;;;5079747;28;20187;-83
2022/08/09 05:10:43;;;;;;;2.37;2.17;;;14.50;97.30;;;;;;5094903;28;20435;-83
2022/08/09 05:13:08;;;;;;;3.87;2.33;;;14.50;97.30;;;;;;5088597;28;20210;-83
2022/08/09 05:15:34;;;;;;;3.00;1.93;;;14.50;97.30;;;;;;5095364;28;20416;-82
2022/08/09 05:18:00;;;;;;;4.63;3.30;;;14.50;97.30;;;;;;5108413;28;20619;-83
2022/08/09 05:20:25;;;;;;;2.90;2.70;;;14.60;97.30;;;;;;5065894;28;20218;-82
2022/08/09 05:22:54;;;;;;;1.53;1.43;;;14.60;97.30;;;;;;5091135;28;20213;-82
2022/08/09 05:25:21;;;;;;;2.90;2.63;;;14.70;97.30;;;;;;5086438;28;20550;-82
2022/08/09 05:27:47;;;;;;;4.07;3.30;;;14.80;97.30;;;;;;5083652;28;20417;-83
2022/08/09 05:30:13;;;;;;;3.97;3.33;;;14.80;97.30;;;;;;5088662;28;20448;-82
2022/08/09 05:32:38;;;;;;;2.67;2.50;;;14.90;97.30;;;;;;5081196;28;20191;-82
2022/08/09 05:35:05;;;;;;;2.73;2.53;;;15.00;97.30;;;;;;5077636;28;20432;-83
2022/08/09 05:37:30;;;;;;;2.30;1.90;;;15.00;97.30;;;;;;5090724;28;20181;-82
2022/08/09 05:39:57;;;;;;;2.30;2.10;;;15.10;97.30;;;;;;5082000;28;20950;-82
2022/08/09 05:42:23;;;;;;;6.13;3.67;;;15.10;97.30;;;;;;5090958;28;20178;-82
2022/08/09 05:44:50;;;;;;;4.57;3.17;;;15.20;97.30;;;;;;5076702;28;20459;-82
2022/08/09 05:47:17;;;;;;;5.33;3.40;;;15.30;97.30;;;;;;5064659;28;20201;-82
2022/08/09 05:49:42;;;;;;;2.33;2.13;;;15.30;97.30;;;;;;5088920;28;20814;-82
2022/08/09 05:52:08;;;;;;;4.20;2.07;;;15.40;97.30;;;;;;5092048;28;20421;-82
2022/08/09 05:54:34;;;;;;;2.60;2.43;;;15.50;97.30;;;;;;5106287;28;20530;-82
2022/08/09 05:57:00;;;;;;;3.10;2.90;;;15.60;97.30;;;;;;5092851;28;20416;-82
2022/08/09 05:59:25;;;;;;;2.30;2.10;;;15.70;97.30;;;;;;5077483;28;20218;-82
2022/08/09 06:01:51;;;;;;;3.33;2.70;;;15.80;97.30;;;;;;5081148;28;20226;-82
2022/08/09 06:04:16;;;;;;;3.73;3.27;;;15.80;97.30;;;;;;5095585;28;20223;-83
2022/08/09 06:06:42;;;;;;;3.10;2.17;;;15.90;97.30;;;;;;5083323;28;20178;-83
2022/08/09 06:09:08;;;;;;;6.20;3.63;;;16.00;97.30;;;;;;5095229;28;20198;-82
2022/08/09 06:11:33;;;;;;;4.20;3.13;;;16.10;97.30;;;;;;5080833;28;20185;-82
2022/08/09 06:13:59;;;;;;;2.87;2.50;;;16.10;97.30;;;;;;5097213;28;20273;-83
2022/08/09 06:16:24;;;;;;;4.07;1.83;;;16.20;97.20;;;;;;5113996;28;20291;-82
2022/08/09 06:18:50;;;;;;;2.80;2.20;;;16.30;97.10;;;;;;5093878;28;20198;-83
2022/08/09 06:21:15;;;;;;;2.43;2.17;;;16.30;96.70;;;;;;5077017;28;20185;-83
2022/08/09 06:23:41;;;;;;;5.70;4.67;;;16.40;96.70;;;;;;5068955;28;20175;-82
2022/08/09 06:26:07;;;;;;;3.30;2.70;;;16.50;96.30;;;;;;5083457;28;20260;-83
2022/08/09 06:28:32;;;;;;;2.97;2.00;;;16.50;96.10;;;;;;5094796;28;20520;-82
2022/08/09 06:30:58;;;;;;;4.93;3.87;;;16.60;96.00;;;;;;5064878;28;20183;-82
2022/08/09 06:33:24;;;;;;;3.20;2.43;;;16.70;96.00;;;;;;5094573;28;20170;-82
2022/08/09 06:35:49;;;;;;;5.37;2.93;;;16.70;95.80;;;;;;5096767;28;20492;-83
2022/08/09 06:38:15;;;;;;;4.40;2.73;;;16.80;95.60;;;;;;5076831;28;20750;-82
2022/08/09 06:40:41;;;;;;;2.57;2.27;;;16.80;95.40;;;;;;5106060;28;20197;-83
2022/08/09 06:43:07;;;;;;;3.10;2.90;;;16.90;95.70;;;;;;5083110;28;20178;-83
2022/08/09 06:45:32;;;;;;;4.63;3.10;;;17.00;95.90;;;;;;5092745;28;20663;-83
2022/08/09 06:47:58;;;;;;;4.20;2.67;;;17.00;95.90;;;;;;5076260;28;20185;-83
2022/08/09 06:50:23;;;;;;;3.20;2.63;;;17.10;95.30;;;;;;5098156;28;20213;-83
2022/08/09 06:52:49;;;;;;;4.00;2.67;;;17.20;94.80;;;;;;5095392;28;20177;-83
2022/08/09 06:55:16;;;;;;;6.40;3.37;;;17.20;93.70;;;;;;5078517;28;20769;-83
2022/08/09 06:57:42;;;;;;;3.90;2.43;;;17.30;93.30;;;;;;5089187;28;20182;-83
2022/08/09 07:00:09;;;;;;;2.93;2.50;;;17.40;92.80;;;;;;5092145;28;20880;-84
2022/08/09 07:02:34;;;;;;;3.30;2.10;;;17.40;92.20;;;;;;5089189;28;20182;-83
2022/08/09 07:05:00;;;;;;;2.37;2.17;;;17.50;92.40;;;;;;5069931;28;21091;-83
2022/08/09 07:07:26;;;;;;;4.10;2.50;;;17.60;92.10;;;;;;5066330;28;20181;-83
2022/08/09 07:09:52;;;;;;;2.83;2.60;;;17.70;91.60;;;;;;5106545;28;20452;-83
2022/08/09 07:12:18;;;;;;;3.30;2.67;;;17.80;91.10;;;;;;5068877;28;20426;-83
2022/08/09 07:14:44;;;;;;;10.17;3.00;;;17.90;90.90;;;;;;5099343;28;20497;-83
2022/08/09 07:17:09;;;;;;;10.70;4.03;;;18.00;90.60;;;;;;5088477;28;20251;-83
2022/08/09 07:19:35;;;;;;;4.00;2.40;;;18.10;90.30;;;;;;5087566;28;20466;-83
2022/08/09 07:22:00;;;;;;;4.10;2.20;;;18.20;90.50;;;;;;5060528;28;20175;-83
2022/08/09 07:24:29;;;;;;;3.83;3.00;;;18.20;90.50;;;;;;5072263;28;20221;-83
2022/08/09 07:26:55;;;;;;;3.50;3.13;;;18.40;90.30;;;;;;5095526;28;20170;-84
2022/08/09 07:29:21;;;;;;;3.63;2.33;;;18.40;89.80;;;;;;5087524;28;20456;-83
2022/08/09 07:31:46;;;;;;;11.90;2.40;;;18.50;89.80;;;;;;5081451;28;20174;-84
2022/08/09 07:34:12;;;;;;;3.10;1.90;;;18.60;89.90;;;;;;5098265;28;20185;-84
2022/08/09 07:36:39;;;;;;;3.93;2.07;;;18.70;89.70;;;;;;5104317;28;20182;-84
2022/08/09 07:39:05;;;;;;;1.87;1.80;;;18.80;89.70;;;;;;5111919;28;20201;-84
2022/08/09 07:41:31;;;;;;;5.43;3.10;;;18.80;89.20;;;;;;5083636;28;20573;-84
2022/08/09 07:43:56;;;;;;;7.43;4.10;;;18.90;88.60;;;;;;5079281;28;20169;-84
2022/08/09 07:46:23;;;;;;;2.93;1.97;;;19.00;88.80;;;;;;5078400;28;20174;-83
2022/08/09 07:48:49;;;;;;;2.80;2.60;;;19.00;88.70;;;;;;5095685;28;20198;-84
2022/08/09 07:51:15;;;;;;;5.50;2.83;;;19.10;88.40;;;;;;5076246;28;21269;-83
2022/08/09 07:53:40;;;;;;;3.73;2.33;;;19.30;88.20;;;;;;5081895;28;20177;-83
2022/08/09 07:56:06;;;;;;;5.40;3.40;;;19.40;88.40;;;;;;5091270;28;20178;-84
2022/08/09 07:58:32;;;;;;;3.10;2.40;;;19.50;88.30;;;;;;5083847;28;20198;-83
2022/08/09 08:00:57;;;;;;;2.37;1.83;;;19.60;89.30;;;;;;5098560;28;20222;-83
2022/08/09 08:03:23;;;;;;;3.50;2.57;;;19.70;88.10;;;;;;5086531;28;20166;-83
2022/08/09 08:05:48;;;;;;;2.20;2.03;;;19.80;87.50;;;;;;5085228;28;20175;-83
2022/08/09 08:08:14;;;;;;;3.57;2.70;;;19.90;88.20;;;;;;5089290;28;20166;-83
2022/08/09 08:10:40;;;;;;;2.70;2.10;;;20.00;88.00;;;;;;5062088;28;20175;-84
2022/08/09 08:13:05;;;;;;;2.70;2.40;;;20.10;87.40;;;;;;5074010;28;20237;-83
2022/08/09 08:15:31;;;;;;;2.60;2.40;;;20.20;87.00;;;;;;5068708;28;20242;-83
2022/08/09 08:17:56;;;;;;;2.27;1.90;;;20.30;86.70;;;;;;5093484;28;20181;-84
2022/08/09 08:20:24;;;;;;;9.90;3.20;;;20.40;86.60;;;;;;5090684;28;20213;-84
2022/08/09 08:22:50;;;;;;;4.40;2.43;;;20.40;85.50;;;;;;5074209;28;20179;-84
2022/08/09 08:25:16;;;;;;;1.93;1.83;;;20.50;85.10;;;;;;5091070;28;20423;-83
2022/08/09 08:27:42;;;;;;;2.47;2.00;;;20.70;84.90;;;;;;5088285;28;20174;-83
2022/08/09 08:30:08;;;;;;;2.03;1.87;;;20.80;84.20;;;;;;5074758;28;20808;-83
2022/08/09 08:32:34;;;;;;;3.37;2.10;;;20.80;83.70;;;;;;5104524;28;20420;-84
2022/08/09 08:35:00;;;;;;;3.27;2.80;;;20.90;83.70;;;;;;5096354;28;20426;-83
2022/08/09 08:37:27;;;;;;;1.90;1.90;;;21.00;83.60;;;;;;5084407;28;20182;-83
2022/08/09 08:39:53;;;;;;;2.57;2.40;;;21.10;83.50;;;;;;5097811;28;20212;-83
2022/08/09 08:42:22;;;;;;;1.73;1.70;;;21.20;83.50;;;;;;5092633;28;20412;-83
2022/08/09 08:44:54;;;;;;;3.13;2.93;;;21.40;83.90;;;;;;5074227;28;20454;-83
2022/08/09 08:47:20;;;;;;;4.10;2.60;;;21.50;84.50;;;;;;5093029;28;20606;-83
2022/08/09 08:49:47;;;;;;;2.63;1.70;;;21.70;84.10;;;;;;5085744;28;20451;-84
2022/08/09 08:52:14;;;;;;;2.67;2.50;;;21.80;83.40;;;;;;5093547;28;20426;-84
2022/08/09 08:54:40;;;;;;;2.87;2.67;;;22.00;83.70;;;;;;5095484;28;20472;-83
2022/08/09 08:57:07;;;;;;;6.20;3.20;;;22.10;83.30;;;;;;5093145;28;20511;-84
2022/08/09 08:59:33;;;;;;;2.53;1.80;;;22.20;83.40;;;;;;5095210;28;20234;-83
2022/08/09 09:01:59;;;;;;;4.13;2.43;;;22.30;82.80;;;;;;5093043;28;20496;-83
2022/08/09 09:04:28;;;;;;;1.40;1.30;;;22.30;82.00;;;;;;5105158;28;20189;-84
2022/08/09 09:06:56;;;;;;;3.50;2.40;;;22.40;81.80;;;;;;5099667;28;20204;-83
2022/08/09 09:09:26;;;;;;;2.43;2.23;;;22.50;80.90;;;;;;5105571;28;20443;-83
2022/08/09 09:11:51;;;;;;;2.13;1.97;;;22.60;81.10;;;;;;5084122;28;21008;-83
2022/08/09 09:14:23;;;;;;;2.40;1.73;;;22.80;81.40;;;;;;5097587;28;20506;-83
2022/08/09 09:16:49;;;;;;;4.23;2.60;;;22.90;81.00;;;;;;5079730;28;20666;-84
2022/08/09 09:19:15;;;;;;;2.43;2.23;;;23.00;81.00;;;;;;5088314;28;20459;-84
2022/08/09 09:21:59;;;;;;;2.20;2.00;;;23.20;80.40;;;;;;5096091;28;20205;-84
2022/08/09 09:24:30;;;;;;;2.70;2.50;;;23.30;79.80;;;;;;5089194;28;20662;-83
2022/08/09 09:26:57;;;;;;;1.97;1.80;;;23.40;79.00;;;;;;5077962;28;20754;-83
2022/08/09 09:29:39;;;;;;;2.90;2.17;;;23.50;79.20;;;;;;5090927;28;20496;-83
2022/08/09 09:32:05;;;;;;;3.83;2.63;;;23.50;78.60;;;;;;5096726;28;20407;-84
2022/08/09 09:34:31;;;;;;;2.90;2.80;;;23.60;78.20;;;;;;5093382;28;20411;-84
2022/08/09 09:36:57;;;;;;;3.33;2.27;;;23.70;77.90;;;;;;5104735;28;20755;-84
2022/08/09 09:39:26;;;;;;;1.90;1.83;;;23.70;77.70;;;;;;5094779;28;20870;-84
2022/08/09 09:41:53;;;;;;;1.67;1.60;;;23.80;78.20;;;;;;5103017;28;20412;-83
2022/08/09 09:44:31;;;;;;;3.13;1.93;;;23.90;78.60;;;;;;5086425;28;20431;-84
2022/08/09 09:47:17;;;;;;;2.07;1.93;;;24.10;78.00;;;;;;5070506;28;20416;-84
2022/08/09 09:49:50;;;;;;;3.10;2.97;;;24.10;77.40;;;;;;5072174;28;20643;-83
2022/08/09 09:52:16;;;;;;;2.80;2.30;;;24.30;77.60;;;;;;5094808;28;20580;-83
2022/08/09 09:54:45;;;;;;;11.13;1.83;;;24.30;77.30;;;;;;5094779;28;20487;-84
2022/08/09 09:57:22;;;;;;;1.47;1.37;;;24.40;77.50;;;;;;5092954;28;20200;-84
2022/08/09 09:59:51;;;;;;;2.07;1.67;;;24.50;76.60;;;;;;5103482;28;20447;-83
2022/08/09 10:02:17;;;;;;;20.83;2.70;;;24.60;76.30;;;;;;5092151;28;20443;-84
2022/08/09 10:04:44;;;;;;;1.50;1.40;;;24.70;75.80;;;;;;5065286;28;20424;-84
2022/08/09 10:07:22;;;;;;;4.10;2.60;;;24.70;75.80;;;;;;5080486;28;20413;-84
2022/08/09 10:09:54;;;;;;;2.50;1.83;;;24.80;75.60;;;;;;5089733;28;20431;-84
2022/08/09 10:12:37;;;;;;;3.40;1.97;;;24.90;75.50;;;;;;5079947;28;20415;-84
2022/08/09 10:15:11;;;;;;;1.40;1.30;;;25.00;75.70;;;;;;5109659;28;20647;-84
2022/08/09 10:17:38;;;;;;;1.87;1.77;;;25.10;74.70;;;;;;5103274;28;20420;-83
2022/08/09 10:20:25;;;;;;;2.40;1.67;;;25.10;74.20;;;;;;5089099;28;20456;-83
2022/08/09 10:22:54;;;;;;;1.73;1.63;;;25.20;74.30;;;;;;5105314;28;20749;-84
2022/08/09 10:25:21;;;;;;;2.20;2.00;;;25.30;72.40;;;;;;5076654;28;20408;-84
2022/08/09 10:27:47;;;;;;;3.13;1.80;;;25.40;72.60;;;;;;5088486;28;20414;-84
2022/08/09 10:30:13;;;;;;;2.40;1.70;;;25.40;72.50;;;;;;5087353;28;20515;-84
2022/08/09 10:32:39;;;;;;;17.47;2.40;;;25.50;72.30;;;;;;5106078;28;20574;-84
2022/08/09 10:35:06;;;;;;;2.87;2.40;;;25.60;72.20;;;;;;5083281;28;20446;-84
2022/08/09 10:37:32;;;;;;;4.70;2.50;;;25.70;71.20;;;;;;5082362;28;20413;-84
2022/08/09 10:39:58;;;;;;;1.90;1.90;;;25.70;71.00;;;;;;5096124;28;20451;-84
2022/08/09 10:42:24;;;;;;;1.80;1.70;;;25.70;70.90;;;;;;5092224;28;20667;-85
2022/08/09 10:45:00;;;;;;;2.77;2.50;;;25.80;71.20;;;;;;5084638;28;20635;-85
2022/08/09 10:47:59;;;;;;;2.67;2.30;;;25.80;70.20;;;;;;5091673;28;20408;-84
2022/08/09 10:51:05;;;;;;;2.27;2.07;;;25.90;71.30;;;;;;5106364;28;20414;-84
2022/08/09 10:53:40;;;;;;;1.83;1.73;;;26.00;71.10;;;;;;5063297;28;20417;-85
2022/08/09 10:56:29;;;;;;;1.40;1.17;;;26.10;69.80;;;;;;5071021;28;20415;-84
2022/08/09 10:58:57;;;;;;;1.60;1.50;;;26.20;70.50;;;;;;5092757;28;20439;-84
2022/08/09 11:01:32;;;;;;;3.57;1.63;;;26.30;70.20;;;;;;5083664;28;20460;-84
2022/08/09 11:04:22;;;;;;;2.87;2.20;;;26.30;70.20;;;;;;5093438;28;20775;-85
2022/08/09 11:07:08;;;;;;;1.47;1.37;;;26.50;69.30;;;;;;5070548;28;20506;-84
2022/08/09 11:09:39;;;;;;;1.40;1.30;;;26.50;69.40;;;;;;5066668;28;20444;-84
2022/08/09 11:12:12;;;;;;;1.30;1.20;;;26.60;69.70;;;;;;5073303;28;20413;-85
2022/08/09 11:14:40;;;;;;;2.03;1.90;;;26.80;69.70;;;;;;5073043;28;20839;-84
2022/08/09 11:17:33;;;;;;;2.30;2.10;;;26.90;67.90;;;;;;5063141;28;20423;-84
2022/08/09 11:20:09;;;;;;;1.40;1.30;;;27.00;68.10;;;;;;5093129;28;20934;-83
2022/08/09 11:22:43;;;;;;;3.53;2.47;;;27.10;67.20;;;;;;5093934;28;20506;-84
2022/08/09 11:25:17;;;;;;;2.43;1.87;;;27.20;67.50;;;;;;5082197;28;20755;-84
2022/08/09 11:27:46;;;;;;;1.20;1.10;;;27.20;68.10;;;;;;5079887;28;21002;-83
2022/08/09 11:30:14;;;;;;;6.20;1.83;;;27.20;68.50;;;;;;5090320;28;20980;-84
2022/08/09 11:32:55;;;;;;;2.27;1.63;;;27.20;68.70;;;;;;5073706;28;20803;-84
2022/08/09 11:35:27;;;;;;;1.20;1.10;;;27.40;68.60;;;;;;5091049;28;20420;-84
2022/08/09 11:37:58;;;;;;;1.90;1.80;;;27.60;67.80;;;;;;5080566;28;20411;-84
2022/08/09 11:40:28;;;;;;;1.87;1.80;;;27.70;67.00;;;;;;5096644;28;20479;-84
2022/08/09 11:42:56;;;;;;;1.97;1.57;;;27.80;66.40;;;;;;5094541;28;20499;-84
2022/08/09 11:45:27;;;;;;;1.80;1.67;;;27.90;66.50;;;;;;5066156;28;20930;-84
2022/08/09 11:47:56;;;;;;;1.00;0.90;;;28.00;66.20;;;;;;5091111;28;20425;-84
2022/08/09 11:50:22;;;;;;;1.10;1.03;;;28.00;65.60;;;;;;5104172;28;20440;-84
2022/08/09 11:52:57;;;;;;;1.57;1.50;;;28.00;66.00;;;;;;5083714;28;20412;-84
2022/08/09 11:55:43;;;;;;;1.20;1.10;;;28.10;65.40;;;;;;5083732;28;21007;-84
2022/08/09 11:58:14;;;;;;;4.20;2.03;;;28.10;65.10;;;;;;5081682;28;20506;-84
2022/08/09 12:00:49;;;;;;;1.47;1.37;;;28.20;65.80;;;;;;5090326;28;20487;-85
2022/08/09 12:03:16;;;;;;;1.73;1.40;;;28.30;64.40;;;;;;5075702;28;20476;-82
2022/08/09 12:05:41;;;;;;;1.83;1.67;;;28.50;64.30;;;;;;5079412;28;20993;-82
2022/08/09 12:08:08;;;;;;;2.23;1.33;;;28.50;63.80;;;;;;5092466;28;20493;-81
2022/08/09 12:10:41;;;;;;;1.63;1.53;;;28.60;64.90;;;;;;5084096;28;20475;-81
2022/08/09 12:13:06;;;;;;;1.30;1.10;;;28.70;64.50;;;;;;5097856;28;20407;-82
2022/08/09 12:15:32;;;;;;;1.30;1.20;;;28.90;64.20;;;;;;5086048;28;20407;-82
2022/08/09 12:17:58;;;;;;;6.00;1.17;;;29.00;64.10;;;;;;5083506;28;20278;-83
2022/08/09 12:20:25;;;;;;;1.40;1.30;;;29.10;64.20;;;;;;5066327;28;20508;-83
2022/08/09 12:22:57;;;;;;;1.30;1.20;;;29.30;63.50;;;;;;5078555;28;20227;-81
2022/08/09 12:25:24;;;;;;;1.80;1.30;;;29.40;62.80;;;;;;5076110;28;20445;-81
2022/08/09 12:28:15;;;;;;;1.87;1.43;;;29.60;62.60;;;;;;5081069;28;20413;-82
2022/08/09 12:30:41;;;;;;;1.20;1.10;;;29.60;62.40;;;;;;5070518;28;20505;-82
2022/08/09 12:33:07;;;;;;;1.60;1.57;;;29.40;61.20;;;;;;5091179;28;20427;-82
2022/08/09 12:35:33;;;;;;;5.40;1.47;;;29.30;62.30;;;;;;5083288;28;20413;-82
2022/08/09 12:38:14;;;;;;;1.93;1.83;;;29.20;61.90;;;;;;5115192;28;20182;-81
2022/08/09 12:40:45;;;;;;;4.83;2.70;;;29.30;62.70;;;;;;5097903;28;20459;-83
2022/08/09 12:43:12;;;;;;;2.40;1.73;;;29.20;61.90;;;;;;5116752;28;20979;-83
2022/08/09 12:45:38;;;;;;;1.40;1.30;;;29.10;62.80;;;;;;5096566;28;20417;-83
2022/08/09 12:48:06;;;;;;;1.50;1.40;;;29.00;62.20;;;;;;5107721;28;20404;-82
2022/08/09 12:50:34;;;;;;;1.87;1.40;;;28.80;63.00;;;;;;5091284;28;20177;-82
2022/08/09 12:53:00;;;;;;;3.00;1.43;;;28.60;63.20;;;;;;5087221;28;20906;-83
2022/08/09 12:55:31;;;;;;;2.47;2.27;;;28.40;62.70;;;;;;5105101;28;20429;-82